createdAt,value
2022-11-17T00:01:08.401Z,2.60
2022-11-17T00:03:35.159Z,2.75
2022-11-17T00:06:04.821Z,2.63
2022-11-17T00:08:31.352Z,2.42
2022-11-17T00:11:01.018Z,2.20
2022-11-17T00:13:45.825Z,2.42
2022-11-17T00:16:13.054Z,2.55
2022-11-17T00:18:58.068Z,3.00
2022-11-17T00:21:26.891Z,2.67
2022-11-17T00:23:53.323Z,2.22
2022-11-17T00:26:20.472Z,2.47
2022-11-17T00:28:46.747Z,2.58
2022-11-17T00:31:32.392Z,2.42
2022-11-17T00:34:04.707Z,2.20
2022-11-17T00:36:32.265Z,2.30
2022-11-17T00:38:58.540Z,2.17
2022-11-17T00:41:24.804Z,2.45
2022-11-17T00:43:51.007Z,2.25
2022-11-17T00:46:17.206Z,2.10
2022-11-17T00:48:43.474Z,2.28
2022-11-17T00:51:09.692Z,2.00
2022-11-17T00:53:36.166Z,2.17
2022-11-17T00:56:02.614Z,1.80
2022-11-17T00:58:28.807Z,1.98
2022-11-17T01:00:55.100Z,1.73
2022-11-17T01:03:21.363Z,1.90
2022-11-17T01:05:47.548Z,1.95
2022-11-17T01:08:13.771Z,2.10
2022-11-17T01:10:40.003Z,2.20
2022-11-17T01:13:06.199Z,1.92
2022-11-17T01:15:33.143Z,2.67
2022-11-17T01:17:59.374Z,2.03
2022-11-17T01:20:25.698Z,2.03
2022-11-17T01:22:53.804Z,2.20
2022-11-17T01:25:20.041Z,1.92
2022-11-17T01:27:46.296Z,2.50
2022-11-17T01:30:12.685Z,2.20
2022-11-17T01:32:39.040Z,2.35
2022-11-17T01:35:05.463Z,2.33
2022-11-17T01:37:31.716Z,1.98
2022-11-17T01:39:57.912Z,2.20
2022-11-17T01:42:25.666Z,2.55
2022-11-17T01:44:53.549Z,1.80
2022-11-17T01:47:19.747Z,2.33
2022-11-17T01:49:46.640Z,1.83
2022-11-17T01:52:13.108Z,1.80
2022-11-17T01:54:40.427Z,1.50
2022-11-17T01:57:10.284Z,1.60
2022-11-17T01:59:42.472Z,1.50
2022-11-17T02:02:08.704Z,1.63
2022-11-17T02:04:42.907Z,1.75
2022-11-17T02:07:13.392Z,1.40
2022-11-17T02:09:40.452Z,1.52
2022-11-17T02:12:11.404Z,1.20
2022-11-17T02:14:38.577Z,1.58
2022-11-17T02:17:13.096Z,1.70
2022-11-17T02:19:41.880Z,1.60
2022-11-17T02:22:26.437Z,1.58
2022-11-17T02:25:04.847Z,1.20
2022-11-17T02:27:49.838Z,1.73
2022-11-17T02:30:18.008Z,1.45
2022-11-17T02:32:44.254Z,1.63
2022-11-17T02:35:36.827Z,1.73
2022-11-17T02:38:21.737Z,1.23
2022-11-17T02:41:16.281Z,1.73
2022-11-17T02:44:03.407Z,1.70
2022-11-17T02:46:39.280Z,1.55
2022-11-17T02:49:09.211Z,2.08
2022-11-17T02:51:41.999Z,1.67
2022-11-17T02:54:08.277Z,1.20
2022-11-17T02:56:34.625Z,1.63
2022-11-17T02:59:02.714Z,1.52
2022-11-17T03:01:45.875Z,1.30
2022-11-17T03:04:31.472Z,1.70
2022-11-17T03:07:03.846Z,1.65
2022-11-17T03:09:48.823Z,1.60
2022-11-17T03:12:27.039Z,1.63
2022-11-17T03:14:58.575Z,1.38
2022-11-17T03:19:56.854Z,1.58
2022-11-17T03:22:41.598Z,1.33
2022-11-17T03:25:09.775Z,1.23
2022-11-17T03:27:38.183Z,2.10
2022-11-17T03:30:06.179Z,2.08
2022-11-17T03:32:36.994Z,1.80
2022-11-17T03:35:05.205Z,1.30
2022-11-17T03:37:33.576Z,1.30
2022-11-17T03:40:03.656Z,1.35
2022-11-17T03:42:33.485Z,1.58
2022-11-17T03:45:06.528Z,1.30
2022-11-17T03:47:33.961Z,1.63
2022-11-17T03:50:04.056Z,1.42
2022-11-17T03:52:30.670Z,1.33
2022-11-17T03:54:57.192Z,1.27
2022-11-17T03:57:29.088Z,1.42
2022-11-17T04:00:00.484Z,1.40
2022-11-17T04:02:26.999Z,1.35
2022-11-17T04:05:05.401Z,1.15
2022-11-17T04:07:35.619Z,1.38
2022-11-17T04:10:02.476Z,1.55
2022-11-17T04:12:47.443Z,1.48
2022-11-17T04:15:32.185Z,1.38
2022-11-17T04:17:58.839Z,1.50
2022-11-17T04:20:25.239Z,1.20
2022-11-17T04:23:06.940Z,1.67
2022-11-17T04:28:47.804Z,1.75
2022-11-17T04:31:27.629Z,1.42
2022-11-17T04:33:55.515Z,1.42
2022-11-17T04:36:25.349Z,1.77
2022-11-17T04:38:53.549Z,1.40
2022-11-17T04:41:39.001Z,2.08
2022-11-17T04:44:05.997Z,1.85
2022-11-17T04:46:33.498Z,1.80
2022-11-17T04:49:00.299Z,2.13
2022-11-17T04:51:27.437Z,1.95
2022-11-17T04:53:53.931Z,1.83
2022-11-17T04:56:20.713Z,1.90
2022-11-17T04:58:47.753Z,1.40
2022-11-17T05:01:14.182Z,1.80
2022-11-17T05:03:50.814Z,1.85
2022-11-17T05:06:23.038Z,1.88
2022-11-17T05:08:49.725Z,2.00
2022-11-17T05:11:34.923Z,1.70
2022-11-17T05:14:01.543Z,1.90
2022-11-17T05:16:46.818Z,1.77
2022-11-17T05:19:14.415Z,1.83
2022-11-17T05:21:40.655Z,1.25
2022-11-17T05:24:07.367Z,1.55
2022-11-17T05:26:34.756Z,1.95
2022-11-17T05:29:01.768Z,1.80
2022-11-17T05:31:28.427Z,1.48
2022-11-17T05:33:55.048Z,1.58
2022-11-17T05:36:22.022Z,2.03
2022-11-17T05:38:48.506Z,1.88
2022-11-17T05:41:15.487Z,1.90
2022-11-17T05:43:41.712Z,2.03
2022-11-17T05:46:08.263Z,2.15
2022-11-17T05:48:34.581Z,2.05
2022-11-17T05:51:00.993Z,2.00
2022-11-17T05:53:27.631Z,2.15
2022-11-17T05:56:11.916Z,2.20
2022-11-17T05:58:39.753Z,2.20
2022-11-17T06:01:06.746Z,1.95
2022-11-17T06:03:35.347Z,2.20
2022-11-17T06:06:01.684Z,1.88
2022-11-17T06:08:29.090Z,1.92
2022-11-17T06:10:56.403Z,2.20
2022-11-17T06:13:28.868Z,2.35
2022-11-17T06:15:55.866Z,2.47
2022-11-17T06:18:26.299Z,2.42
2022-11-17T06:20:53.772Z,2.30
2022-11-17T06:23:21.798Z,2.20
2022-11-17T06:25:48.177Z,2.30
2022-11-17T06:28:17.023Z,1.83
2022-11-17T06:30:43.774Z,1.92
2022-11-17T06:33:11.147Z,1.90
2022-11-17T06:35:37.909Z,2.20
2022-11-17T06:38:04.160Z,1.92
2022-11-17T06:40:30.396Z,1.80
2022-11-17T06:43:09.480Z,2.00
2022-11-17T06:45:36.894Z,1.92
2022-11-17T06:48:03.450Z,1.95
2022-11-17T06:50:29.646Z,2.33
2022-11-17T06:52:56.704Z,2.05
2022-11-17T06:55:22.918Z,2.30
2022-11-17T06:57:53.377Z,2.00
2022-11-17T07:00:20.005Z,2.30
2022-11-17T07:02:46.174Z,2.20
2022-11-17T07:05:12.398Z,2.47
2022-11-17T07:07:38.637Z,2.10
2022-11-17T07:10:05.039Z,2.17
2022-11-17T07:12:31.299Z,1.85
2022-11-17T07:14:57.482Z,1.98
2022-11-17T07:17:23.699Z,1.92
2022-11-17T07:19:49.947Z,1.50
2022-11-17T07:22:16.263Z,1.35
2022-11-17T07:24:42.527Z,1.10
2022-11-17T07:27:08.725Z,1.13
2022-11-17T07:29:34.920Z,1.30
2022-11-17T07:32:01.117Z,0.88
2022-11-17T07:34:27.358Z,0.88
2022-11-17T07:36:53.579Z,0.70
2022-11-17T07:39:21.628Z,0.90
2022-11-17T07:41:48.234Z,0.95
2022-11-17T07:44:14.442Z,0.75
2022-11-17T07:46:40.655Z,0.70
2022-11-17T07:49:06.857Z,0.80
2022-11-17T07:51:33.049Z,0.77
2022-11-17T07:53:59.278Z,1.27
2022-11-17T07:56:25.496Z,0.60
2022-11-17T07:58:53.231Z,0.65
2022-11-17T08:01:19.654Z,0.90
2022-11-17T08:03:46.011Z,0.70
2022-11-17T08:06:12.421Z,0.60
2022-11-17T08:08:39.252Z,0.90
2022-11-17T08:11:06.524Z,0.60
2022-11-17T08:13:33.187Z,0.60
2022-11-17T08:15:59.502Z,0.82
2022-11-17T08:18:26.081Z,0.60
2022-11-17T08:20:52.338Z,0.80
2022-11-17T08:23:18.548Z,0.70
2022-11-17T08:25:44.736Z,0.60
2022-11-17T08:28:10.982Z,1.00
2022-11-17T08:30:37.186Z,0.70
2022-11-17T08:33:03.536Z,0.80
2022-11-17T08:35:34.277Z,0.95
2022-11-17T08:38:03.271Z,0.80
2022-11-17T08:40:29.475Z,0.90
2022-11-17T08:43:00.731Z,0.90
2022-11-17T08:45:27.769Z,1.00
2022-11-17T08:47:55.335Z,1.33
2022-11-17T08:50:21.691Z,1.27
2022-11-17T08:52:48.279Z,1.15
2022-11-17T08:55:14.883Z,1.10
2022-11-17T08:57:41.123Z,1.52
2022-11-17T09:00:07.689Z,1.13
2022-11-17T09:02:33.963Z,0.98
2022-11-17T09:05:00.150Z,1.00
2022-11-17T09:07:30.571Z,1.17
2022-11-17T09:10:00.145Z,1.40
2022-11-17T09:12:26.424Z,0.93
2022-11-17T09:14:52.608Z,1.05
2022-11-17T09:17:18.847Z,1.00
2022-11-17T09:19:45.109Z,1.08
2022-11-17T09:22:11.334Z,1.02
2022-11-17T09:24:37.519Z,1.10
2022-11-17T09:27:03.939Z,1.10
2022-11-17T09:29:30.635Z,1.13
2022-11-17T09:31:57.576Z,0.95
2022-11-17T09:34:23.893Z,1.33
2022-11-17T09:36:50.177Z,1.45
2022-11-17T09:39:16.453Z,1.05
2022-11-17T09:41:46.584Z,0.80
2022-11-17T09:44:21.705Z,1.13
2022-11-17T09:47:06.580Z,1.25
2022-11-17T09:49:35.885Z,0.82
2022-11-17T09:52:05.065Z,1.40
2022-11-17T09:54:40.751Z,1.33
2022-11-17T09:57:13.248Z,1.23
2022-11-17T09:59:39.491Z,1.00
2022-11-17T10:02:10.019Z,1.20
2022-11-17T10:04:36.266Z,1.38
2022-11-17T10:07:03.789Z,1.17
2022-11-17T10:09:36.593Z,0.80
2022-11-17T10:12:13.262Z,0.70
2022-11-17T10:14:40.089Z,0.98
2022-11-17T10:17:06.496Z,0.90
2022-11-17T10:19:36.464Z,1.00
2022-11-17T10:22:02.644Z,0.82
2022-11-17T10:24:32.920Z,0.80
2022-11-17T10:26:59.121Z,0.73
2022-11-17T10:29:25.320Z,0.70
2022-11-17T10:31:51.565Z,0.52
2022-11-17T10:34:34.114Z,0.68
2022-11-17T10:37:12.609Z,0.70
2022-11-17T10:39:40.311Z,0.90
2022-11-17T10:42:17.138Z,0.80
2022-11-17T10:44:44.076Z,0.57
2022-11-17T10:47:25.002Z,0.80
2022-11-17T10:50:05.221Z,0.63
2022-11-17T10:52:31.459Z,0.70
2022-11-17T10:55:16.079Z,1.00
2022-11-17T10:57:44.005Z,1.10
2022-11-17T11:00:22.169Z,0.90
2022-11-17T11:02:48.406Z,0.85
2022-11-17T11:05:18.551Z,0.70
2022-11-17T11:07:44.855Z,0.70
2022-11-17T11:10:16.682Z,0.80
2022-11-17T11:12:52.403Z,0.80
2022-11-17T11:15:22.683Z,0.88
2022-11-17T11:17:49.029Z,1.02
2022-11-17T11:20:19.818Z,0.90
2022-11-17T11:22:53.475Z,0.73
2022-11-17T11:25:31.892Z,0.80
2022-11-17T11:28:01.150Z,0.70
2022-11-17T11:30:27.448Z,0.80
2022-11-17T11:32:56.818Z,0.90
2022-11-17T11:35:31.458Z,1.15
2022-11-17T11:38:08.723Z,0.63
2022-11-17T11:40:41.890Z,0.80
2022-11-17T11:43:18.073Z,0.60
2022-11-17T11:45:50.341Z,0.80
2022-11-17T11:48:20.086Z,0.80
2022-11-17T11:50:49.003Z,1.10
2022-11-17T11:53:18.995Z,0.65
2022-11-17T11:55:47.862Z,0.80
2022-11-17T11:58:23.608Z,0.85
2022-11-17T12:00:56.207Z,1.00
2022-11-17T12:03:29.808Z,0.70
2022-11-17T12:06:31.781Z,0.70
2022-11-17T12:11:42.969Z,0.77
2022-11-17T12:14:13.661Z,0.77
2022-11-17T12:16:43.065Z,0.75
2022-11-17T12:19:27.775Z,1.00
2022-11-17T12:21:54.875Z,0.90
2022-11-17T12:24:25.388Z,1.10
2022-11-17T12:26:51.565Z,0.82
2022-11-17T12:29:20.524Z,0.65
2022-11-17T12:31:47.815Z,0.70
2022-11-17T12:34:24.504Z,0.60
2022-11-17T12:37:09.214Z,0.80
2022-11-17T12:39:51.968Z,0.70
2022-11-17T12:42:18.209Z,0.80
2022-11-17T12:44:47.310Z,1.02
2022-11-17T12:47:13.943Z,0.98
2022-11-17T12:49:55.345Z,0.70
2022-11-17T12:52:30.344Z,1.02
2022-11-17T12:55:03.087Z,0.80
2022-11-17T12:57:31.876Z,1.40
2022-11-17T13:00:16.099Z,1.10
2022-11-17T13:02:57.015Z,0.90
2022-11-17T13:05:24.658Z,0.70
2022-11-17T13:08:07.362Z,1.00
2022-11-17T13:10:33.852Z,0.90
2022-11-17T13:13:10.516Z,0.80
2022-11-17T13:15:36.927Z,0.70
2022-11-17T13:18:08.245Z,0.82
2022-11-17T13:20:34.448Z,1.08
2022-11-17T13:23:08.876Z,0.75
2022-11-17T13:25:35.281Z,1.02
2022-11-17T13:28:04.875Z,1.10
2022-11-17T13:30:32.539Z,1.05
2022-11-17T13:33:00.443Z,0.80
2022-11-17T13:35:30.706Z,0.80
2022-11-17T13:38:15.725Z,0.90
2022-11-17T13:40:43.273Z,1.08
2022-11-17T13:43:20.428Z,1.20
2022-11-17T13:45:47.419Z,1.30
2022-11-17T13:48:52.399Z,0.90
2022-11-17T13:51:32.928Z,0.90
2022-11-17T13:54:11.320Z,1.00
2022-11-17T13:56:39.327Z,1.20
2022-11-17T13:59:23.721Z,1.05
2022-11-17T14:01:50.065Z,1.15
2022-11-17T14:04:19.787Z,1.00
2022-11-17T14:06:54.241Z,1.13
2022-11-17T14:09:20.583Z,1.00
2022-11-17T14:11:46.769Z,0.88
2022-11-17T14:14:13.865Z,1.10
2022-11-17T14:16:41.397Z,1.15
2022-11-17T14:19:16.801Z,0.90
2022-11-17T14:22:01.626Z,1.20
2022-11-17T14:24:28.324Z,1.42
2022-11-17T14:26:54.771Z,1.17
2022-11-17T14:29:20.948Z,1.23
2022-11-17T14:31:47.259Z,0.88
2022-11-17T14:34:13.974Z,1.02
2022-11-17T14:36:40.699Z,1.23
2022-11-17T14:39:15.164Z,1.40
2022-11-17T14:41:42.072Z,1.33
2022-11-17T14:44:08.906Z,1.27
2022-11-17T14:46:35.384Z,1.33
2022-11-17T14:49:01.572Z,1.23
2022-11-17T14:51:27.908Z,1.08
2022-11-17T14:53:54.237Z,1.45
2022-11-17T14:56:22.084Z,1.75
2022-11-17T14:58:52.181Z,1.20
2022-11-17T15:01:19.809Z,1.17
2022-11-17T15:03:46.300Z,1.00
2022-11-17T15:06:19.539Z,1.00
2022-11-17T15:08:46.548Z,1.10
2022-11-17T15:11:16.191Z,1.00
2022-11-17T15:13:42.682Z,1.10
2022-11-17T15:16:09.060Z,0.90
2022-11-17T15:18:35.302Z,1.35
2022-11-17T15:21:02.704Z,1.40
2022-11-17T15:23:29.045Z,1.75
2022-11-17T15:25:55.286Z,1.17
2022-11-17T15:28:23.234Z,1.15
2022-11-17T15:30:49.529Z,1.25
2022-11-17T15:33:15.870Z,1.20
2022-11-17T15:35:42.070Z,1.33
2022-11-17T15:38:08.249Z,1.50
2022-11-17T15:40:34.456Z,1.75
2022-11-17T15:43:05.423Z,1.13
2022-11-17T15:45:33.052Z,1.40
2022-11-17T15:47:59.594Z,1.30
2022-11-17T15:50:26.474Z,1.10
2022-11-17T15:53:08.601Z,1.90
2022-11-17T15:55:35.366Z,1.50
2022-11-17T15:58:01.606Z,1.40
2022-11-17T16:00:27.776Z,1.80
2022-11-17T16:02:58.481Z,1.65
2022-11-17T16:05:24.981Z,1.50
2022-11-17T16:07:51.252Z,1.33
2022-11-17T16:10:17.468Z,1.92
2022-11-17T16:12:43.681Z,1.63
2022-11-17T16:15:10.017Z,1.33
2022-11-17T16:17:36.321Z,1.40
2022-11-17T16:20:02.630Z,1.70
2022-11-17T16:22:28.907Z,1.35
2022-11-17T16:24:55.120Z,1.75
2022-11-17T16:27:21.347Z,1.58
2022-11-17T16:29:47.626Z,1.40
2022-11-17T16:32:14.001Z,1.30
2022-11-17T16:34:41.518Z,1.40
2022-11-17T16:37:08.037Z,1.35
2022-11-17T16:39:34.263Z,1.50
2022-11-17T16:42:01.501Z,1.65
2022-11-17T16:44:27.772Z,1.75
2022-11-17T16:46:54.105Z,1.30
2022-11-17T16:49:20.754Z,2.13
2022-11-17T16:51:48.310Z,1.67
2022-11-17T16:54:14.552Z,1.52
2022-11-17T16:56:40.847Z,1.63
2022-11-17T16:59:07.378Z,2.13
2022-11-17T17:01:35.359Z,1.60
2022-11-17T17:04:02.834Z,1.50
2022-11-17T17:06:29.161Z,1.60
2022-11-17T17:08:56.616Z,1.98
2022-11-17T17:11:23.140Z,2.38
2022-11-17T17:13:49.413Z,1.75
2022-11-17T17:16:16.898Z,1.83
2022-11-17T17:18:43.178Z,2.25
2022-11-17T17:21:13.479Z,2.20
2022-11-17T17:23:39.680Z,1.95
2022-11-17T17:26:10.062Z,1.83
2022-11-17T17:28:37.078Z,1.75
2022-11-17T17:31:04.297Z,1.92
2022-11-17T17:33:32.285Z,1.35
2022-11-17T17:36:06.151Z,1.75
2022-11-17T17:38:32.396Z,1.83
2022-11-17T17:41:08.957Z,3.42
2022-11-17T17:43:35.292Z,2.13
2022-11-17T17:46:01.873Z,1.83
2022-11-17T17:48:29.606Z,2.20
2022-11-17T17:51:00.187Z,2.20
2022-11-17T17:53:26.395Z,2.08
2022-11-17T17:55:52.580Z,2.33
2022-11-17T17:58:18.815Z,2.10
2022-11-17T18:00:47.623Z,1.98
2022-11-17T18:03:13.906Z,1.90
2022-11-17T18:05:40.196Z,2.38
2022-11-17T18:08:06.442Z,2.25
2022-11-17T18:10:32.669Z,1.73
2022-11-17T18:12:58.875Z,2.15
2022-11-17T18:15:25.056Z,2.65
2022-11-17T18:17:51.304Z,2.20
2022-11-17T18:20:17.552Z,2.78
2022-11-17T18:22:43.779Z,2.83
2022-11-17T18:25:13.806Z,2.50
2022-11-17T18:27:43.830Z,2.30
2022-11-17T18:30:10.344Z,3.03
2022-11-17T18:32:36.547Z,2.88
2022-11-17T18:35:02.760Z,2.90
2022-11-17T18:37:28.949Z,2.60
2022-11-17T18:39:55.122Z,2.33
2022-11-17T18:42:21.308Z,3.28
2022-11-17T18:44:47.615Z,3.17
2022-11-17T18:47:13.871Z,3.35
2022-11-17T18:49:40.066Z,2.78
2022-11-17T18:52:07.620Z,2.78
2022-11-17T18:54:33.915Z,2.70
2022-11-17T18:57:01.389Z,2.78
2022-11-17T18:59:27.875Z,3.40
2022-11-17T19:01:54.340Z,2.65
2022-11-17T19:04:20.650Z,3.13
2022-11-17T19:06:46.896Z,2.85
2022-11-17T19:09:13.746Z,2.78
2022-11-17T19:11:40.280Z,3.10
2022-11-17T19:14:06.632Z,2.67
2022-11-17T19:16:33.530Z,2.60
2022-11-17T19:18:59.958Z,3.88
2022-11-17T19:21:27.475Z,4.30
2022-11-17T19:23:54.587Z,3.53
2022-11-17T19:26:22.554Z,3.00
2022-11-17T19:28:48.995Z,3.00
2022-11-17T19:31:19.125Z,2.70
2022-11-17T19:33:46.255Z,3.40
2022-11-17T19:36:13.621Z,3.03
2022-11-17T19:38:40.631Z,2.83
2022-11-17T19:41:07.946Z,3.38
2022-11-17T19:43:36.172Z,2.58
2022-11-17T19:46:06.096Z,3.35
2022-11-17T19:48:32.374Z,3.40
2022-11-17T19:50:59.297Z,2.88
2022-11-17T19:53:26.142Z,2.75
2022-11-17T19:55:52.797Z,2.60
2022-11-17T19:58:19.746Z,3.00
2022-11-17T20:00:46.629Z,2.70
2022-11-17T20:03:13.038Z,2.63
2022-11-17T20:05:39.327Z,2.47
2022-11-17T20:08:05.944Z,2.70
2022-11-17T20:10:32.624Z,2.70
2022-11-17T20:12:59.039Z,3.17
2022-11-17T20:15:34.533Z,3.20
2022-11-17T20:18:01.251Z,2.63
2022-11-17T20:20:27.436Z,2.83
2022-11-17T20:22:53.725Z,2.30
2022-11-17T20:25:20.290Z,2.83
2022-11-17T20:27:46.496Z,2.85
2022-11-17T20:30:15.320Z,3.45
2022-11-17T20:32:41.794Z,2.97
2022-11-17T20:35:08.185Z,2.47
2022-11-17T20:37:34.591Z,2.45
2022-11-17T20:40:01.119Z,2.30
2022-11-17T20:42:27.366Z,2.00
2022-11-17T20:44:53.611Z,1.98
2022-11-17T20:47:20.053Z,2.15
2022-11-17T20:49:46.257Z,2.08
2022-11-17T20:52:13.609Z,2.45
2022-11-17T20:54:39.950Z,2.13
2022-11-17T20:57:06.166Z,2.45
2022-11-17T20:59:32.433Z,2.45
2022-11-17T21:01:58.632Z,2.30
2022-11-17T21:04:24.884Z,2.30
2022-11-17T21:06:51.212Z,2.50
2022-11-17T21:09:18.141Z,2.75
2022-11-17T21:11:57.207Z,2.80
2022-11-17T21:14:25.931Z,2.88
2022-11-17T21:16:52.262Z,3.20
2022-11-17T21:19:19.195Z,3.42
2022-11-17T21:21:45.801Z,3.20
2022-11-17T21:24:12.342Z,3.30
2022-11-17T21:26:38.615Z,3.25
2022-11-17T21:29:06.665Z,3.17
2022-11-17T21:31:33.339Z,3.05
2022-11-17T21:34:01.975Z,3.33
2022-11-17T21:36:28.865Z,3.30
2022-11-17T21:38:55.344Z,3.28
2022-11-17T21:41:22.502Z,3.42
2022-11-17T21:43:49.478Z,3.47
2022-11-17T21:46:16.947Z,3.20
2022-11-17T21:48:43.812Z,3.60
2022-11-17T21:51:14.529Z,4.00
2022-11-17T21:53:40.792Z,3.53
2022-11-17T21:56:07.532Z,4.05
2022-11-17T21:58:34.175Z,4.20
2022-11-17T22:01:07.741Z,3.20
2022-11-17T22:03:34.448Z,3.35
2022-11-17T22:06:07.986Z,3.85
2022-11-17T22:08:36.205Z,3.95
2022-11-17T22:11:03.075Z,3.95
2022-11-17T22:13:29.279Z,4.22
2022-11-17T22:15:55.653Z,3.95
2022-11-17T22:18:21.877Z,3.60
2022-11-17T22:20:51.571Z,3.67
2022-11-17T22:23:17.759Z,3.50
2022-11-17T22:25:45.634Z,4.00
2022-11-17T22:28:12.224Z,3.78
2022-11-17T22:30:38.658Z,3.97
2022-11-17T22:33:04.919Z,4.00
2022-11-17T22:35:31.233Z,3.45
2022-11-17T22:37:57.450Z,3.63
2022-11-17T22:40:23.671Z,3.63
2022-11-17T22:42:52.142Z,3.78
2022-11-17T22:45:18.395Z,4.25
2022-11-17T22:47:46.225Z,4.10
2022-11-17T22:50:12.700Z,4.43
2022-11-17T22:52:38.886Z,3.75
2022-11-17T22:55:05.272Z,4.22
2022-11-17T22:57:31.452Z,4.35
2022-11-17T22:59:57.659Z,4.18
2022-11-17T23:02:23.932Z,4.15
2022-11-17T23:04:50.154Z,3.60
2022-11-17T23:07:16.431Z,5.05
2022-11-17T23:09:42.699Z,4.93
2022-11-17T23:12:08.878Z,3.95
2022-11-17T23:14:35.197Z,4.20
2022-11-17T23:17:01.383Z,3.92
2022-11-17T23:19:27.613Z,3.78
2022-11-17T23:21:53.818Z,3.63
2022-11-17T23:24:20.036Z,5.32
2022-11-17T23:26:46.642Z,4.10
2022-11-17T23:29:13.543Z,3.75
2022-11-17T23:31:40.096Z,4.43
2022-11-17T23:34:08.004Z,4.00
2022-11-17T23:36:34.433Z,4.25
2022-11-17T23:39:00.612Z,3.97
2022-11-17T23:41:26.968Z,4.63
2022-11-17T23:43:53.890Z,4.50
2022-11-17T23:46:21.138Z,3.97
2022-11-17T23:48:47.574Z,3.80
2022-11-17T23:51:15.108Z,4.13
2022-11-17T23:53:41.826Z,3.60
2022-11-17T23:56:08.951Z,3.85
2022-11-17T23:58:35.740Z,4.35
